Time;durP1;ratioP1;P1;durP2;ratioP2;P2;SDS_P1;SDS_P2;PMS_P1;PMS_P2;Temp;Humidity;BMP_temperature;BMP_pressure;BME280_temperature;BME280_humidity;BME280_pressure;Samples;Min_cycle;Max_cycle;Signal;HPM_P1;HPM_P2
2022/01/28 00:05:23;;;;;;;20.80;3.40;;;5.10;99.90;;;;;;5043079;28;20048;-81
2022/01/28 00:07:50;;;;;;;11.07;3.95;;;5.10;99.90;;;;;;4998922;28;20050;-80
2022/01/28 00:10:17;;;;;;;8.70;2.03;;;5.10;99.90;;;;;;5026944;28;20076;-82
2022/01/28 00:13:02;;;;;;;10.68;1.88;;;5.00;99.90;;;;;;5012906;28;20148;-81
2022/01/28 00:15:34;;;;;;;23.33;2.50;;;5.00;99.90;;;;;;5016556;28;20061;-81
2022/01/28 00:18:33;;;;;;;33.15;3.70;;;5.00;99.90;;;;;;5028623;28;20045;-81
2022/01/28 00:37:38;;;;;;;10.20;2.25;;;5.20;99.90;;;;;;5037253;28;20084;-81
2022/01/28 00:40:04;;;;;;;17.52;3.30;;;5.10;99.90;;;;;;5014183;28;20358;-82
2022/01/28 00:42:29;;;;;;;13.25;2.17;;;5.20;99.90;;;;;;5022720;28;20033;-81
2022/01/28 00:44:57;;;;;;;7.45;2.00;;;5.10;99.90;;;;;;5016491;28;20507;-81
2022/01/28 00:47:22;;;;;;;19.77;3.08;;;5.10;99.90;;;;;;5044103;28;20052;-81
2022/01/28 00:49:48;;;;;;;14.35;1.98;;;5.10;99.90;;;;;;5025626;28;20048;-82
2022/01/28 00:52:13;;;;;;;16.45;3.28;;;5.10;99.90;;;;;;5016129;28;20502;-82
2022/01/28 00:54:39;;;;;;;4.63;2.15;;;5.00;99.90;;;;;;5029608;28;20615;-81
2022/01/28 00:57:04;;;;;;;8.90;1.83;;;4.90;99.90;;;;;;5026877;28;20070;-81
2022/01/28 00:59:30;;;;;;;7.50;1.35;;;5.00;99.90;;;;;;5033502;28;20551;-81
2022/01/28 01:01:55;;;;;;;10.13;2.17;;;5.00;99.90;;;;;;5017125;28;20144;-81
2022/01/28 01:04:23;;;;;;;8.52;2.25;;;4.90;99.90;;;;;;5032270;28;20592;-81
2022/01/28 01:06:48;;;;;;;17.23;3.80;;;5.00;99.90;;;;;;5013977;28;20578;-81
2022/01/28 01:09:14;;;;;;;19.65;3.67;;;5.00;99.90;;;;;;5032106;28;20057;-83
2022/01/28 01:11:41;;;;;;;2.00;0.77;;;5.00;99.90;;;;;;5018384;28;20486;-82
2022/01/28 01:14:06;;;;;;;3.28;1.60;;;5.10;99.90;;;;;;5010254;28;20042;-81
2022/01/28 01:16:42;;;;;;;6.13;1.95;;;5.10;99.90;;;;;;5029371;28;20563;-81
2022/01/28 01:21:40;;;;;;;11.40;2.83;;;5.20;99.90;;;;;;5048373;28;20099;-81
2022/01/28 01:24:08;;;;;;;11.35;2.60;;;5.20;99.90;;;;;;5033032;28;20052;-81
2022/01/28 01:26:38;;;;;;;19.55;4.28;;;5.20;99.90;;;;;;5034189;28;20483;-82
2022/01/28 01:29:12;;;;;;;22.00;2.65;;;5.30;99.90;;;;;;5015100;28;20508;-82
2022/01/28 01:31:41;;;;;;;10.77;2.88;;;5.40;99.90;;;;;;5009759;28;20050;-82
2022/01/28 01:34:14;;;;;;;20.88;3.67;;;5.40;99.90;;;;;;5015925;28;20572;-82
2022/01/28 01:36:40;;;;;;;0.40;0.40;;;5.40;99.90;;;;;;5029995;28;20048;-82
2022/01/28 01:39:09;;;;;;;18.13;2.83;;;5.40;99.90;;;;;;5016895;28;20033;-82
2022/01/28 01:41:45;;;;;;;13.40;2.35;;;5.30;99.90;;;;;;5009420;28;20521;-82
2022/01/28 01:52:34;;;;;;;3.35;0.80;;;5.20;99.90;;;;;;5011228;28;20041;-82
2022/01/28 01:54:59;;;;;;;23.33;3.08;;;5.20;99.90;;;;;;5035340;28;20438;-81
2022/01/28 01:57:25;;;;;;;16.75;4.22;;;5.20;99.90;;;;;;5026464;28;20134;-81
2022/01/28 01:59:50;;;;;;;18.02;3.85;;;5.30;99.90;;;;;;5031135;28;20046;-81
2022/01/28 02:02:16;;;;;;;7.53;1.73;;;5.30;99.90;;;;;;5018816;28;20037;-82
2022/01/28 02:04:42;;;;;;;15.90;2.53;;;5.40;99.90;;;;;;5045336;28;20025;-82
2022/01/28 02:07:08;;;;;;;29.50;4.32;;;5.50;99.90;;;;;;5029439;28;20098;-82
2022/01/28 02:09:34;;;;;;;27.25;3.17;;;5.50;99.90;;;;;;5009939;28;20186;-82
2022/01/28 02:12:00;;;;;;;18.33;3.83;;;5.50;99.90;;;;;;5028421;28;20068;-81
2022/01/28 02:14:25;;;;;;;16.17;4.90;;;5.60;99.90;;;;;;5037301;28;20041;-82
2022/01/28 02:16:51;;;;;;;25.35;3.70;;;5.60;99.90;;;;;;5030362;28;20064;-83
2022/01/28 02:19:17;;;;;;;19.73;3.65;;;5.60;99.90;;;;;;5035247;28;20067;-81
2022/01/28 02:21:47;;;;;;;24.83;4.53;;;5.70;99.90;;;;;;5035438;28;20041;-82
2022/01/28 02:24:16;;;;;;;19.13;3.90;;;5.70;99.90;;;;;;5009547;28;20084;-82
2022/01/28 02:26:42;;;;;;;12.38;2.92;;;5.80;99.90;;;;;;5030076;28;20051;-81
2022/01/28 02:29:12;;;;;;;16.73;2.40;;;5.90;99.90;;;;;;5009769;28;20509;-81
2022/01/28 02:31:38;;;;;;;14.75;2.95;;;5.80;99.90;;;;;;5010011;28;20049;-82
2022/01/28 02:34:05;;;;;;;17.25;3.45;;;5.80;99.90;;;;;;5013333;28;20056;-82
2022/01/28 02:36:31;;;;;;;27.13;4.75;;;5.70;99.90;;;;;;5029779;28;20447;-81
2022/01/28 02:38:58;;;;;;;9.80;2.70;;;5.80;99.90;;;;;;5029423;28;20068;-82
2022/01/28 02:41:27;;;;;;;8.82;2.05;;;5.70;99.90;;;;;;5034465;28;20045;-82
2022/01/28 02:44:09;;;;;;;11.65;2.78;;;5.70;99.90;;;;;;5016204;28;20056;-81
2022/01/28 02:46:38;;;;;;;31.42;4.03;;;5.70;99.90;;;;;;5014886;28;20125;-82
2022/01/28 02:49:09;;;;;;;13.73;3.00;;;5.60;99.90;;;;;;5025943;28;20126;-81
2022/01/28 02:51:35;;;;;;;14.73;2.22;;;5.60;99.90;;;;;;5046312;28;20128;-82
2022/01/28 02:54:12;;;;;;;16.52;3.72;;;5.50;99.90;;;;;;5027604;28;20140;-82
2022/01/28 02:56:40;;;;;;;23.13;2.88;;;5.60;99.90;;;;;;5021458;28;20055;-82
2022/01/28 02:59:06;;;;;;;22.40;4.10;;;5.60;99.90;;;;;;5032755;28;20041;-81
2022/01/28 03:01:32;;;;;;;9.35;2.55;;;5.70;99.90;;;;;;5022232;28;20064;-82
2022/01/28 03:04:02;;;;;;;21.58;4.15;;;5.70;99.90;;;;;;5034857;28;20632;-82
2022/01/28 03:06:28;;;;;;;14.77;3.65;;;5.70;99.90;;;;;;5025653;28;20056;-81
2022/01/28 03:09:08;;;;;;;11.50;2.95;;;5.70;99.90;;;;;;5018556;28;20042;-81
2022/01/28 03:14:16;;;;;;;23.75;5.07;;;5.60;99.90;;;;;;5039139;28;20186;-81
2022/01/28 03:19:52;;;;;;;18.50;3.47;;;5.50;99.90;;;;;;5022505;28;20049;-82
2022/01/28 03:22:18;;;;;;;15.50;2.65;;;5.40;99.90;;;;;;5012327;28;20037;-82
2022/01/28 03:24:47;;;;;;;7.68;1.90;;;5.40;99.90;;;;;;5031972;28;20492;-81
2022/01/28 03:27:20;;;;;;;17.67;3.13;;;5.40;99.90;;;;;;5011622;28;20045;-81
2022/01/28 03:29:45;;;;;;;;;;;5.40;99.90;;;;;;5024291;28;20042;-82
2022/01/28 03:32:11;;;;;;;11.48;3.00;;;5.30;99.90;;;;;;5016210;28;20391;-81
2022/01/28 03:34:37;;;;;;;5.13;1.48;;;5.20;99.90;;;;;;5027171;28;20045;-82
2022/01/28 03:37:04;;;;;;;12.30;1.77;;;5.20;99.90;;;;;;5021747;28;20557;-82
2022/01/28 03:39:30;;;;;;;15.38;2.95;;;5.20;99.90;;;;;;5021897;28;20045;-82
2022/01/28 03:41:56;;;;;;;12.55;2.83;;;5.30;99.90;;;;;;5010266;28;20482;-82
2022/01/28 03:44:21;;;;;;;21.58;3.85;;;5.40;99.90;;;;;;5020298;28;20068;-81
2022/01/28 03:46:47;;;;;;;13.30;3.88;;;5.40;99.90;;;;;;5024017;28;20045;-82
2022/01/28 03:49:12;;;;;;;20.90;3.50;;;5.30;99.90;;;;;;5010494;28;20048;-81
2022/01/28 03:51:38;;;;;;;23.17;2.83;;;5.40;99.90;;;;;;5027769;28;20413;-82
2022/01/28 03:54:04;;;;;;;18.13;3.40;;;5.30;99.90;;;;;;5009248;28;20049;-82
2022/01/28 03:56:30;;;;;;;10.57;2.42;;;5.30;99.90;;;;;;5027109;28;20482;-82
2022/01/28 03:58:55;;;;;;;16.80;2.90;;;5.20;99.90;;;;;;5042391;28;20044;-81
2022/01/28 04:01:27;;;;;;;19.95;3.60;;;5.20;99.90;;;;;;5021138;28;20037;-81
2022/01/28 04:11:51;;;;;;;21.65;2.90;;;5.40;99.90;;;;;;5029294;28;20045;-82
2022/01/28 04:15:05;;;;;;;8.73;1.75;;;5.50;99.90;;;;;;5041082;28;20037;-82
2022/01/28 04:19:31;;;;;;;22.15;3.58;;;5.60;99.90;;;;;;5025863;28;20107;-82
2022/01/28 04:21:57;;;;;;;9.73;2.42;;;5.60;99.90;;;;;;5019672;28;20095;-82
2022/01/28 04:24:23;;;;;;;11.00;2.58;;;5.60;99.90;;;;;;5014019;28;20681;-82
2022/01/28 04:26:48;;;;;;;5.20;1.95;;;5.60;99.90;;;;;;5008381;28;20037;-81
2022/01/28 04:29:14;;;;;;;8.60;2.38;;;5.60;99.90;;;;;;5025303;28;20486;-82
2022/01/28 04:31:43;;;;;;;16.42;2.92;;;5.70;99.90;;;;;;5023850;28;20049;-82
2022/01/28 04:34:10;;;;;;;10.75;2.72;;;5.70;99.90;;;;;;5026444;28;20478;-82
2022/01/28 04:36:43;;;;;;;11.65;1.70;;;5.70;99.90;;;;;;5022246;28;20061;-81
2022/01/28 04:39:17;;;;;;;7.68;2.45;;;5.70;99.90;;;;;;5006404;28;20046;-82
2022/01/28 04:44:16;;;;;;;26.17;4.82;;;5.60;99.90;;;;;;5011613;28;20119;-81
2022/01/28 04:46:45;;;;;;;15.30;1.95;;;5.50;99.90;;;;;;5025925;28;20707;-81
2022/01/28 04:49:29;;;;;;;17.52;3.33;;;5.50;99.90;;;;;;5023814;28;20041;-81
2022/01/28 04:54:53;;;;;;;38.38;4.45;;;5.50;99.90;;;;;;5023539;28;20104;-82
2022/01/28 05:00:26;;;;;;;14.27;2.50;;;5.30;99.90;;;;;;4984070;28;20045;-81
2022/01/28 05:03:16;;;;;;;19.77;3.70;;;5.30;99.90;;;;;;5009511;28;20044;-82
2022/01/28 05:24:54;;;;;;;13.25;1.98;;;5.00;99.90;;;;;;5034104;28;20067;-82
2022/01/28 05:27:13;;;;;;;6.35;0.98;;;4.90;99.90;;;;;;5011963;28;20265;-83
2022/01/28 05:29:42;;;;;;;19.88;5.05;;;4.80;99.90;;;;;;5008806;28;20046;-82
2022/01/28 05:32:09;;;;;;;10.20;2.53;;;4.80;99.90;;;;;;5022059;28;20045;-82
2022/01/28 05:34:35;;;;;;;19.98;3.75;;;4.80;99.90;;;;;;5012889;28;20074;-82
2022/01/28 05:37:00;;;;;;;6.03;2.25;;;4.80;99.90;;;;;;5011978;28;20127;-82
2022/01/28 05:39:26;;;;;;;18.58;3.33;;;4.80;99.90;;;;;;5028517;28;20037;-82
2022/01/28 05:41:51;;;;;;;3.38;1.05;;;4.80;99.90;;;;;;5028884;28;20048;-82
2022/01/28 05:44:18;;;;;;;4.72;1.25;;;4.80;99.90;;;;;;5008297;28;20044;-82
2022/01/28 05:46:45;;;;;;;3.38;1.65;;;4.80;99.90;;;;;;5044868;28;20055;-82
2022/01/28 05:49:12;;;;;;;19.67;3.28;;;4.80;99.90;;;;;;5012242;28;20071;-82
2022/01/28 05:51:38;;;;;;;13.65;2.08;;;4.80;99.90;;;;;;5011610;28;20068;-81
2022/01/28 05:54:03;;;;;;;13.55;1.92;;;4.90;99.90;;;;;;5029164;28;20290;-82
2022/01/28 05:56:31;;;;;;;6.25;1.60;;;4.90;99.90;;;;;;5012275;28;20052;-82
2022/01/28 05:58:56;;;;;;;6.30;2.53;;;4.90;99.90;;;;;;5027889;28;20041;-82
2022/01/28 06:01:22;;;;;;;22.98;3.40;;;4.90;99.90;;;;;;5028245;28;20040;-82
2022/01/28 06:03:48;;;;;;;23.25;2.80;;;5.00;99.90;;;;;;5008347;28;20030;-82
2022/01/28 06:06:19;;;;;;;8.00;2.83;;;5.00;99.90;;;;;;5012331;28;20114;-82
2022/01/28 06:08:55;;;;;;;12.55;2.92;;;5.00;99.90;;;;;;5027367;28;20045;-82
2022/01/28 06:11:22;;;;;;;17.63;3.53;;;5.10;99.90;;;;;;5025993;28;20037;-82
2022/01/28 06:13:48;;;;;;;14.57;2.03;;;5.10;99.90;;;;;;5007956;28;20411;-82
2022/01/28 06:16:15;;;;;;;14.93;3.72;;;5.10;99.90;;;;;;5012990;28;20053;-82
2022/01/28 06:18:42;;;;;;;14.20;3.15;;;5.20;99.90;;;;;;5041520;28;20095;-82
2022/01/28 06:21:08;;;;;;;9.35;2.03;;;5.10;99.90;;;;;;5019277;28;20397;-83
2022/01/28 06:23:34;;;;;;;18.77;4.28;;;5.20;99.90;;;;;;5035510;28;20037;-82
2022/01/28 06:26:00;;;;;;;5.00;1.88;;;5.20;99.90;;;;;;5015706;28;20094;-82
2022/01/28 06:28:27;;;;;;;13.23;2.53;;;5.30;99.90;;;;;;5034024;28;20217;-82
2022/01/28 06:30:52;;;;;;;14.70;3.67;;;5.30;99.90;;;;;;5015789;28;20040;-81
2022/01/28 06:33:18;;;;;;;17.77;3.95;;;5.30;99.90;;;;;;5042843;28;20048;-82
2022/01/28 06:35:45;;;;;;;18.73;3.22;;;5.20;99.90;;;;;;5026499;28;20128;-81
2022/01/28 06:38:11;;;;;;;11.82;1.85;;;5.20;99.90;;;;;;5018506;28;20502;-82
2022/01/28 06:40:38;;;;;;;16.67;3.08;;;5.20;99.90;;;;;;5020999;28;20037;-82
2022/01/28 06:43:04;;;;;;;22.40;2.97;;;5.20;99.90;;;;;;5017001;28;20131;-82
2022/01/28 06:45:29;;;;;;;18.95;2.92;;;5.20;99.90;;;;;;5017245;28;20045;-82
2022/01/28 06:47:55;;;;;;;1.40;0.65;;;5.20;99.90;;;;;;5014864;28;20042;-82
2022/01/28 06:50:21;;;;;;;12.35;3.40;;;5.10;99.90;;;;;;5037422;28;20044;-81
2022/01/28 06:52:46;;;;;;;1.75;1.13;;;5.10;99.90;;;;;;5027791;28;20046;-82
2022/01/28 06:55:14;;;;;;;8.93;1.48;;;5.10;99.90;;;;;;5032375;28;20203;-81
2022/01/28 06:57:40;;;;;;;1.45;1.35;;;5.20;99.90;;;;;;5034305;28;20045;-82
2022/01/28 07:00:07;;;;;;;0.98;0.98;;;5.20;99.90;;;;;;5016909;28;20037;-82
2022/01/28 07:02:33;;;;;;;1.25;0.93;;;5.20;99.90;;;;;;5018207;28;20037;-82
2022/01/28 07:04:59;;;;;;;7.47;2.17;;;5.20;99.90;;;;;;5041111;28;20044;-82
2022/01/28 07:07:26;;;;;;;13.60;2.03;;;5.20;99.90;;;;;;5013676;28;20042;-82
2022/01/28 07:09:52;;;;;;;15.80;3.85;;;5.20;99.90;;;;;;5027851;28;20079;-82
2022/01/28 07:12:18;;;;;;;16.70;2.63;;;5.20;99.90;;;;;;5031939;28;20068;-82
2022/01/28 07:14:44;;;;;;;21.05;3.13;;;5.20;99.90;;;;;;5032595;28;20476;-82
2022/01/28 07:17:10;;;;;;;5.07;3.03;;;5.20;99.90;;;;;;5049567;28;20132;-82
2022/01/28 07:19:36;;;;;;;1.33;0.57;;;5.20;99.90;;;;;;5032243;28;20147;-82
2022/01/28 07:22:03;;;;;;;16.55;2.75;;;5.20;99.90;;;;;;5032440;28;20040;-82
2022/01/28 07:24:29;;;;;;;13.13;1.80;;;5.10;99.90;;;;;;5037578;28;20037;-83
2022/01/28 07:26:55;;;;;;;3.30;1.63;;;5.00;99.90;;;;;;5044143;28;20553;-82
2022/01/28 07:29:22;;;;;;;28.65;3.00;;;5.00;99.90;;;;;;5028212;28;20220;-83
2022/01/28 07:31:48;;;;;;;15.20;3.70;;;5.00;99.90;;;;;;5044680;28;20051;-82
2022/01/28 07:34:14;;;;;;;9.65;2.05;;;5.00;99.90;;;;;;5033269;28;20044;-82
2022/01/28 07:36:40;;;;;;;13.38;2.58;;;4.90;99.90;;;;;;5050493;28;20051;-82
2022/01/28 07:39:07;;;;;;;12.65;2.38;;;4.80;99.90;;;;;;5030477;28;20663;-82
2022/01/28 07:41:36;;;;;;;12.77;3.00;;;4.80;99.90;;;;;;5035221;28;20039;-82
2022/01/28 07:44:03;;;;;;;9.18;2.42;;;4.80;99.90;;;;;;5049758;28;20496;-82
2022/01/28 07:46:28;;;;;;;9.95;2.17;;;4.80;99.90;;;;;;5044501;28;20036;-82
2022/01/28 07:48:54;;;;;;;27.23;5.40;;;4.80;99.90;;;;;;5041086;28;20044;-82
2022/01/28 07:51:20;;;;;;;15.43;3.17;;;4.80;99.90;;;;;;5049620;28;20055;-82
2022/01/28 07:53:45;;;;;;;14.90;2.72;;;4.70;99.90;;;;;;5029577;28;20055;-82
2022/01/28 07:56:13;;;;;;;17.95;3.35;;;4.70;99.90;;;;;;5037471;28;20485;-82
2022/01/28 07:58:38;;;;;;;24.55;3.33;;;4.80;99.90;;;;;;5032216;28;20040;-83
2022/01/28 08:01:04;;;;;;;30.52;3.22;;;4.80;99.90;;;;;;5065730;28;20032;-83
2022/01/28 08:03:29;;;;;;;9.98;2.67;;;4.80;99.90;;;;;;5030542;28;20098;-82
2022/01/28 08:05:55;;;;;;;12.27;2.25;;;4.80;99.90;;;;;;5032125;28;20489;-82
2022/01/28 08:08:21;;;;;;;22.20;2.70;;;4.70;99.90;;;;;;5048908;28;20040;-82
2022/01/28 08:10:48;;;;;;;12.35;2.40;;;4.80;99.90;;;;;;5046519;28;20040;-82
2022/01/28 08:13:14;;;;;;;10.18;1.98;;;4.70;99.90;;;;;;5034994;28;20045;-82
2022/01/28 08:15:40;;;;;;;11.20;2.70;;;4.80;99.90;;;;;;5029480;28;20136;-82
2022/01/28 08:18:07;;;;;;;11.20;2.88;;;4.70;99.90;;;;;;5032964;28;20124;-82
2022/01/28 08:20:33;;;;;;;23.35;3.40;;;4.70;99.90;;;;;;5032767;28;20041;-83
2022/01/28 08:23:00;;;;;;;10.10;2.58;;;4.70;99.90;;;;;;5049882;28;20041;-82
2022/01/28 08:25:27;;;;;;;14.00;2.63;;;4.70;99.90;;;;;;5030499;28;20115;-82
2022/01/28 08:27:54;;;;;;;7.65;1.65;;;4.70;99.90;;;;;;5027369;28;20116;-83
2022/01/28 08:30:22;;;;;;;0.93;0.65;;;4.70;99.90;;;;;;5025487;28;20080;-82
2022/01/28 08:32:49;;;;;;;19.95;2.90;;;4.70;99.90;;;;;;5037653;28;20067;-82
2022/01/28 08:35:16;;;;;;;21.17;2.58;;;4.80;99.90;;;;;;5032512;28;20509;-83
2022/01/28 08:37:42;;;;;;;9.25;1.55;;;4.80;99.90;;;;;;5036836;28;20117;-85
2022/01/28 08:40:10;;;;;;;19.40;3.25;;;5.00;99.90;;;;;;5014699;28;20040;-85
2022/01/28 08:42:36;;;;;;;12.00;1.38;;;5.20;99.90;;;;;;5050424;28;20036;-83
2022/01/28 08:45:03;;;;;;;28.15;3.35;;;5.40;99.90;;;;;;5040163;28;20559;-83
2022/01/28 08:47:28;;;;;;;7.65;1.92;;;5.70;99.90;;;;;;5037762;28;20043;-84
2022/01/28 08:49:54;;;;;;;15.45;2.33;;;5.90;99.90;;;;;;5018771;28;20029;-84
2022/01/28 08:52:19;;;;;;;3.10;1.50;;;6.00;99.90;;;;;;5060091;28;20041;-83
2022/01/28 08:54:47;;;;;;;17.40;2.47;;;6.20;99.90;;;;;;5030455;28;20497;-84
2022/01/28 08:57:13;;;;;;;16.25;4.10;;;6.30;99.90;;;;;;5027016;28;20492;-83
2022/01/28 08:59:40;;;;;;;13.52;2.80;;;6.20;99.90;;;;;;5042705;28;20044;-83
2022/01/28 09:02:06;;;;;;;6.28;1.75;;;6.00;99.90;;;;;;5072417;28;20051;-83
2022/01/28 09:04:31;;;;;;;25.73;3.30;;;5.90;99.90;;;;;;5026079;28;20088;-83
2022/01/28 09:06:57;;;;;;;20.38;3.15;;;5.80;99.90;;;;;;5046942;28;20080;-83
2022/01/28 09:09:23;;;;;;;11.48;2.67;;;5.80;99.90;;;;;;5041022;28;20524;-83
2022/01/28 09:12:05;;;;;;;9.68;2.33;;;6.00;99.90;;;;;;5031127;28;20044;-83
2022/01/28 09:14:30;;;;;;;25.65;4.65;;;6.50;99.90;;;;;;5038248;28;20041;-83
2022/01/28 09:16:56;;;;;;;16.75;3.78;;;6.90;99.90;;;;;;5020724;28;20049;-83
2022/01/28 09:19:22;;;;;;;19.67;3.05;;;6.90;99.90;;;;;;5071569;28;20815;-82
2022/01/28 09:21:48;;;;;;;21.45;4.38;;;6.70;99.90;;;;;;5046510;28;20029;-83
2022/01/28 09:24:14;;;;;;;13.27;2.65;;;6.80;99.90;;;;;;5035840;28;20436;-83
2022/01/28 09:26:39;;;;;;;12.75;3.35;;;7.00;99.90;;;;;;5045874;28;20036;-83
2022/01/28 09:29:05;;;;;;;10.52;1.35;;;7.20;99.90;;;;;;5044724;28;20056;-83
2022/01/28 09:31:30;;;;;;;29.02;2.75;;;7.30;99.90;;;;;;5025145;28;20045;-83
2022/01/28 09:33:56;;;;;;;15.52;2.83;;;7.30;99.90;;;;;;5017467;28;20139;-83
2022/01/28 09:36:22;;;;;;;26.30;3.08;;;7.20;99.90;;;;;;5089494;28;20039;-83
2022/01/28 09:38:48;;;;;;;25.90;2.85;;;7.10;99.90;;;;;;5061033;28;20053;-82
2022/01/28 09:41:15;;;;;;;7.32;1.55;;;6.90;99.90;;;;;;5023705;28;20036;-83
2022/01/28 09:43:44;;;;;;;21.52;2.50;;;6.90;99.90;;;;;;5038793;28;20538;-82
2022/01/28 09:46:09;;;;;;;19.95;3.42;;;6.80;99.90;;;;;;5040549;28;20437;-83
2022/01/28 09:48:36;;;;;;;13.65;3.88;;;6.80;99.90;;;;;;5032810;28;20087;-82
2022/01/28 09:51:03;;;;;;;2.53;1.50;;;6.80;99.90;;;;;;5039579;28;20122;-83
2022/01/28 09:53:29;;;;;;;15.85;3.00;;;6.70;99.90;;;;;;5030060;28;20448;-83
2022/01/28 09:55:56;;;;;;;12.23;3.42;;;6.80;99.90;;;;;;5043832;28;20040;-83
2022/01/28 09:58:22;;;;;;;25.80;3.80;;;6.80;99.90;;;;;;5064573;28;20041;-82
2022/01/28 10:00:48;;;;;;;10.77;2.05;;;6.80;99.90;;;;;;5061272;28;20488;-82
2022/01/28 10:03:15;;;;;;;17.10;2.70;;;6.80;99.90;;;;;;5036777;28;20039;-83
2022/01/28 10:05:48;;;;;;;16.77;3.22;;;6.90;99.90;;;;;;5027490;28;20135;-82
2022/01/28 10:08:23;;;;;;;14.50;2.85;;;6.90;99.90;;;;;;5034745;28;20044;-82
2022/01/28 10:11:08;;;;;;;26.55;3.63;;;6.90;99.90;;;;;;5037798;28;20032;-83
2022/01/28 10:13:40;;;;;;;5.15;2.03;;;6.90;99.90;;;;;;5033333;28;20472;-82
2022/01/28 10:16:23;;;;;;;11.43;2.55;;;7.00;99.90;;;;;;5049669;28;20040;-83
2022/01/28 10:19:00;;;;;;;22.65;3.33;;;7.00;99.90;;;;;;5051801;28;20045;-83
2022/01/28 10:21:28;;;;;;;22.38;2.75;;;7.00;99.90;;;;;;5051753;28;20040;-83
2022/01/28 10:24:10;;;;;;;20.23;2.85;;;7.00;99.90;;;;;;5048870;28;20041;-83
2022/01/28 10:27:09;;;;;;;4.47;1.10;;;7.00;99.90;;;;;;5034412;28;20102;-83
2022/01/28 10:29:37;;;;;;;11.05;2.53;;;7.10;99.90;;;;;;5050533;28;20044;-84
2022/01/28 10:32:07;;;;;;;21.90;3.50;;;7.20;99.90;;;;;;5043736;28;20069;-83
2022/01/28 10:34:40;;;;;;;7.72;2.28;;;7.20;99.90;;;;;;5034615;28;20852;-83
2022/01/28 10:37:11;;;;;;;10.10;2.70;;;7.30;99.90;;;;;;5030827;28;20041;-82
2022/01/28 10:39:49;;;;;;;11.88;1.88;;;7.30;99.90;;;;;;5033843;28;20079;-83
2022/01/28 10:42:32;;;;;;;16.55;2.60;;;7.30;99.90;;;;;;5032131;28;20028;-82
2022/01/28 10:45:11;;;;;;;15.23;3.07;;;7.30;99.90;;;;;;5053419;28;20112;-83
2022/01/28 10:47:46;;;;;;;12.82;1.60;;;7.30;99.90;;;;;;5040964;28;20055;-83
2022/01/28 10:50:28;;;;;;;18.10;3.05;;;7.20;99.90;;;;;;5044222;28;20040;-83
2022/01/28 10:53:12;;;;;;;11.65;1.92;;;7.30;99.90;;;;;;5050329;28;20044;-83
2022/01/28 10:55:48;;;;;;;12.38;1.60;;;7.30;99.90;;;;;;5054700;28;20044;-83
2022/01/28 10:58:20;;;;;;;14.85;4.35;;;7.40;99.90;;;;;;5049546;28;20133;-82
2022/01/28 11:00:53;;;;;;;5.07;2.75;;;7.50;99.90;;;;;;5034031;28;20040;-82
2022/01/28 11:03:26;;;;;;;5.28;1.73;;;7.50;99.90;;;;;;5048239;28;20029;-83
2022/01/28 11:05:56;;;;;;;5.15;1.58;;;7.50;99.90;;;;;;5032627;28;20115;-82
2022/01/28 11:08:24;;;;;;;13.75;3.13;;;7.50;99.90;;;;;;5033637;28;20060;-83
2022/01/28 11:10:50;;;;;;;27.02;2.95;;;7.50;99.90;;;;;;5050946;28;20170;-83
2022/01/28 11:13:17;;;;;;;18.88;2.08;;;7.50;99.90;;;;;;5038494;28;20044;-82
2022/01/28 11:15:43;;;;;;;1.98;1.60;;;7.50;99.90;;;;;;5033468;28;20540;-83
2022/01/28 11:18:10;;;;;;;14.20;2.72;;;7.60;99.90;;;;;;5049960;28;20051;-83
2022/01/28 11:20:39;;;;;;;10.55;2.50;;;7.70;99.90;;;;;;5032676;28;20495;-82
2022/01/28 11:23:22;;;;;;;11.50;2.58;;;7.80;99.90;;;;;;5047169;28;20627;-82
2022/01/28 11:25:54;;;;;;;;;;;7.80;99.90;;;;;;5048738;28;20037;-82
2022/01/28 11:28:20;;;;;;;13.85;2.67;;;7.80;99.90;;;;;;5031696;28;20007;-82
2022/01/28 11:30:51;;;;;;;12.63;1.50;;;7.80;99.90;;;;;;5051770;28;20415;-82
2022/01/28 11:33:18;;;;;;;11.02;2.90;;;7.60;99.90;;;;;;5031233;28;20049;-82
2022/01/28 11:35:49;;;;;;;21.73;2.60;;;7.60;99.90;;;;;;5039242;28;20040;-83
2022/01/28 11:38:24;;;;;;;13.82;2.67;;;7.50;99.90;;;;;;5030651;28;20090;-82
2022/01/28 11:40:58;;;;;;;19.88;3.47;;;7.50;99.90;;;;;;5030418;28;20450;-82
2022/01/28 11:43:26;;;;;;;2.40;1.45;;;7.50;99.90;;;;;;5029201;28;20078;-82
2022/01/28 11:46:23;;;;;;;9.52;2.40;;;7.40;99.90;;;;;;5046972;28;20052;-82
2022/01/28 11:48:52;;;;;;;0.47;0.47;;;7.30;99.90;;;;;;5033833;28;20059;-82
2022/01/28 11:51:20;;;;;;;12.25;4.15;;;7.20;99.90;;;;;;5028294;28;20044;-83
2022/01/28 11:53:57;;;;;;;12.90;2.50;;;7.20;99.90;;;;;;5034964;28;20041;-83
2022/01/28 11:56:24;;;;;;;4.03;1.15;;;7.20;99.90;;;;;;5032702;28;20119;-82
2022/01/28 11:59:02;;;;;;;6.03;1.52;;;7.30;99.90;;;;;;5023287;28;20381;-83
2022/01/28 12:01:40;;;;;;;14.90;2.78;;;7.50;99.90;;;;;;5028970;28;20098;-82
2022/01/28 12:04:31;;;;;;;5.70;1.50;;;7.80;99.90;;;;;;5045147;28;20768;-82
2022/01/28 12:07:01;;;;;;;9.93;2.30;;;8.10;99.90;;;;;;5042895;28;20054;-82
2022/01/28 12:09:29;;;;;;;9.32;2.42;;;8.20;99.90;;;;;;5025968;28;20040;-82
2022/01/28 12:11:55;;;;;;;14.98;2.40;;;8.30;99.90;;;;;;5029844;28;20040;-81
2022/01/28 12:15:10;;;;;;;13.55;2.08;;;8.40;99.90;;;;;;5059063;28;20168;-82
2022/01/28 12:17:38;;;;;;;4.78;1.85;;;8.30;99.90;;;;;;4967651;28;20050;-82
2022/01/28 12:20:12;;;;;;;4.70;1.50;;;8.20;99.90;;;;;;4958725;28;20122;-83
2022/01/28 12:22:59;;;;;;;18.17;2.67;;;8.00;99.90;;;;;;4964658;28;20092;-82
2022/01/28 12:25:36;;;;;;;11.75;1.88;;;7.80;99.90;;;;;;4963613;28;20046;-82
2022/01/28 12:28:26;;;;;;;9.10;1.55;;;7.90;99.90;;;;;;4980473;28;20874;-82
2022/01/28 12:31:06;;;;;;;8.40;1.90;;;7.80;99.90;;;;;;4951755;28;20518;-82
2022/01/28 12:33:34;;;;;;;4.18;1.35;;;7.80;99.90;;;;;;4960501;28;20423;-82
2022/01/28 12:36:11;;;;;;;17.73;2.83;;;7.80;99.90;;;;;;4954306;28;20137;-82
2022/01/28 12:38:43;;;;;;;13.57;3.05;;;7.80;99.90;;;;;;4973041;28;20149;-82
2022/01/28 12:41:14;;;;;;;11.82;1.73;;;7.90;99.90;;;;;;4956311;28;20050;-82
2022/01/28 12:43:40;;;;;;;10.32;1.80;;;8.10;99.90;;;;;;4977461;28;20070;-82
2022/01/28 12:46:10;;;;;;;6.00;1.33;;;8.30;99.90;;;;;;4967609;28;20069;-82
2022/01/28 12:48:44;;;;;;;12.82;2.10;;;8.50;99.90;;;;;;5006163;28;20056;-83
2022/01/28 12:51:10;;;;;;;17.90;2.97;;;8.60;99.90;;;;;;5059707;28;20079;-82
2022/01/28 12:53:41;;;;;;;6.53;2.60;;;8.60;99.90;;;;;;5053095;28;20083;-82
2022/01/28 12:56:08;;;;;;;5.47;1.38;;;8.40;99.90;;;;;;5059626;28;20097;-82
2022/01/28 12:58:45;;;;;;;5.88;1.70;;;8.30;99.90;;;;;;5035011;28;20037;-82
2022/01/28 13:01:12;;;;;;;12.93;3.40;;;8.10;99.90;;;;;;5025923;28;21175;-81
2022/01/28 13:03:49;;;;;;;12.25;2.65;;;8.00;99.90;;;;;;5046826;28;20040;-82
2022/01/28 13:09:16;;;;;;;6.43;1.30;;;7.80;99.90;;;;;;5046818;28;20036;-82
2022/01/28 13:11:52;;;;;;;7.13;1.50;;;7.80;99.90;;;;;;5035335;28;20037;-82
2022/01/28 13:14:33;;;;;;;2.55;1.17;;;7.80;99.90;;;;;;5035532;28;20047;-82
2022/01/28 13:17:00;;;;;;;2.42;1.15;;;7.80;99.90;;;;;;5036133;28;20051;-82
2022/01/28 13:19:27;;;;;;;8.35;2.03;;;7.80;99.90;;;;;;5052764;28;20393;-83
2022/01/28 13:21:54;;;;;;;11.23;1.95;;;7.80;99.90;;;;;;5043306;28;20032;-82
2022/01/28 13:24:22;;;;;;;8.82;1.95;;;7.80;99.90;;;;;;5035625;28;20072;-82
2022/01/28 13:27:14;;;;;;;9.30;2.20;;;7.80;99.90;;;;;;5027418;28;20051;-82
2022/01/28 13:29:40;;;;;;;18.08;2.40;;;7.70;99.90;;;;;;5022426;28;20079;-82
2022/01/28 13:32:15;;;;;;;9.23;1.55;;;7.70;99.90;;;;;;5027785;28;20052;-82
2022/01/28 13:34:55;;;;;;;1.60;0.77;;;7.70;99.90;;;;;;5062041;28;20432;-82
2022/01/28 13:37:34;;;;;;;19.98;3.47;;;7.80;99.90;;;;;;5049012;28;20052;-82
2022/01/28 13:40:01;;;;;;;21.90;2.63;;;7.90;99.90;;;;;;5042117;28;20033;-82
2022/01/28 13:42:27;;;;;;;11.90;2.15;;;8.00;99.90;;;;;;5027794;28;20725;-82
2022/01/28 13:44:53;;;;;;;17.83;2.85;;;8.10;99.90;;;;;;5051287;28;20046;-82
2022/01/28 13:47:18;;;;;;;9.32;1.90;;;8.20;99.90;;;;;;5031570;28;20124;-82
2022/01/28 13:49:44;;;;;;;11.40;1.65;;;8.10;99.90;;;;;;5033502;28;20138;-82
2022/01/28 13:52:25;;;;;;;5.82;1.17;;;8.10;99.90;;;;;;5034965;28;20037;-82
2022/01/28 13:54:51;;;;;;;3.40;1.00;;;8.10;99.90;;;;;;5053162;28;20044;-81
2022/01/28 13:57:17;;;;;;;11.43;2.22;;;8.10;99.90;;;;;;5047676;28;20055;-81
2022/01/28 13:59:43;;;;;;;2.03;0.95;;;8.10;99.90;;;;;;5050450;28;20037;-82
2022/01/28 14:02:16;;;;;;;13.13;2.55;;;8.10;99.90;;;;;;5051688;28;20125;-82
2022/01/28 14:04:47;;;;;;;6.53;1.50;;;8.20;99.90;;;;;;5040388;28;20119;-82
2022/01/28 14:07:20;;;;;;;6.75;2.25;;;8.20;99.90;;;;;;5055178;28;20166;-83
2022/01/28 14:09:58;;;;;;;7.20;1.45;;;8.10;99.90;;;;;;5038022;28;20523;-82
2022/01/28 14:12:52;;;;;;;10.77;2.30;;;8.00;99.90;;;;;;5046880;28;20515;-82
2022/01/28 14:15:29;;;;;;;7.82;1.67;;;7.90;99.90;;;;;;5046228;28;20071;-81
2022/01/28 14:17:55;;;;;;;6.82;1.08;;;7.80;99.90;;;;;;5026566;28;20045;-82
2022/01/28 14:20:21;;;;;;;9.38;2.17;;;7.70;99.90;;;;;;5030131;28;20037;-82